^^
Saratoga-Weather Station Historical Data
Daily Summary for July 20, 2021 Units:  Both    English   Metric
Daily Weekly Monthly Yearly Custom
  High: Low: Average:
Temperature: 64.8 °F /  18.2 °C 61.3 °F /  16.3 °C 62.6 °F /  17 °C
Dew Point: 56.1 °F /  13.4 °C 55 °F /  12.8 °C 55.6 °F /  13.1 °C
Humidity: 81% 73% 78%
Wind Speed: 2mph /  3.2km/h - 0.5mph /  0.8km/h
Wind Gust: 3mph /  4.8km/h - -
Wind- - SSE
Pressure: 30.1 in /  1018.6 hPa 30.1 in /  1018.3 hPa -
Precipitation: 0 in /  0.0 mm    
Historical Graphs
 
 
Tabular Data for July 20, 2021
Time Temperature Dew Point Pressure Wind Wind Speed Wind Gust Humidity Rainfall Rate (Hourly) solar
00:04 64.8 °F /  18.2 °C 55.9 °F /  13.3 °C 30.1in /  1018.6hPa Calm     73% 0in /  0.0mm 0 W/m2
00:09 64.6 °F /  18.1 °C 56.1 °F /  13.4 °C 30.1in /  1018.6hPa Calm   1mph /  1.6km/h 74% 0in /  0.0mm 0 W/m2
00:14 64.2 °F /  17.9 °C 55.8 °F /  13.2 °C 30.1in /  1018.6hPa Calm   1mph /  1.6km/h 74% 0in /  0.0mm 0 W/m2
00:19 64 °F /  17.8 °C 55.9 °F /  13.3 °C 30.1in /  1018.6hPa SE 0.9mph /  1.4km/h 1mph /  1.6km/h 75% 0in /  0.0mm 0 W/m2
00:24 63.9 °F /  17.7 °C 56.1 °F /  13.4 °C 30.1in /  1018.6hPa SE 0.9mph /  1.4km/h 1mph /  1.6km/h 76% 0in /  0.0mm 0 W/m2
00:29 63.5 °F /  17.5 °C 55.8 °F /  13.2 °C 30.1in /  1018.6hPa Calm   1mph /  1.6km/h 76% 0in /  0.0mm 0 W/m2
00:34 63.3 °F /  17.4 °C 55.9 °F /  13.3 °C 30.1in /  1018.6hPa Calm   1mph /  1.6km/h 77% 0in /  0.0mm 0 W/m2
00:39 63.1 °F /  17.3 °C 55.8 °F /  13.2 °C 30.1in /  1018.6hPa Calm   1mph /  1.6km/h 77% 0in /  0.0mm 0 W/m2
00:44 62.8 °F /  17.1 °C 55.8 °F /  13.2 °C 30.1in /  1018.6hPa Calm   1mph /  1.6km/h 78% 0in /  0.0mm 0 W/m2
00:49 62.4 °F /  16.9 °C 55.4 °F /  13 °C 30.1in /  1018.6hPa SE 0.9mph /  1.4km/h 1mph /  1.6km/h 78% 0in /  0.0mm 0 W/m2
00:54 62.4 °F /  16.9 °C 55.4 °F /  13 °C 30.1in /  1018.6hPa SE 0.9mph /  1.4km/h 1mph /  1.6km/h 78% 0in /  0.0mm 0 W/m2
00:59 62.4 °F /  16.9 °C 55.4 °F /  13 °C 30.1in /  1018.6hPa ESE 0.9mph /  1.4km/h 1mph /  1.6km/h 78% 0in /  0.0mm 0 W/m2
01:05 62.4 °F /  16.9 °C 55.4 °F /  13 °C 30.1in /  1018.6hPa Calm     78% 0in /  0.0mm 0 W/m2
01:10 62.4 °F /  16.9 °C 55.4 °F /  13 °C 30.1in /  1018.6hPa Calm   2mph /  3.2km/h 78% 0in /  0.0mm 0 W/m2
01:15 62.4 °F /  16.9 °C 55.4 °F /  13 °C 30.1in /  1018.6hPa Calm   2mph /  3.2km/h 78% 0in /  0.0mm 0 W/m2
01:20 62.4 °F /  16.9 °C 55.8 °F /  13.2 °C 30.1in /  1018.6hPa NE 0.9mph /  1.4km/h 1mph /  1.6km/h 79% 0in /  0.0mm 0 W/m2
01:25 62.4 °F /  16.9 °C 55.4 °F /  13 °C 30.1in /  1018.6hPa Calm   2mph /  3.2km/h 78% 0in /  0.0mm 0 W/m2
01:30 62.4 °F /  16.9 °C 55.4 °F /  13 °C 30.1in /  1018.6hPa East 2mph /  3.2km/h 2mph /  3.2km/h 78% 0in /  0.0mm 0 W/m2
01:35 62.4 °F /  16.9 °C 55.4 °F /  13 °C 30.1in /  1018.3hPa ENE 0.9mph /  1.4km/h 2mph /  3.2km/h 78% 0in /  0.0mm 0 W/m2
01:40 62.4 °F /  16.9 °C 55.8 °F /  13.2 °C 30.1in /  1018.6hPa Calm   1mph /  1.6km/h 79% 0in /  0.0mm 0 W/m2
01:45 62.2 °F /  16.8 °C 55.6 °F /  13.1 °C 30.1in /  1018.3hPa Calm   1mph /  1.6km/h 79% 0in /  0.0mm 0 W/m2
01:50 62.1 °F /  16.7 °C 55.4 °F /  13 °C 30.1in /  1018.3hPa Calm   3mph /  4.8km/h 79% 0in /  0.0mm 0 W/m2
01:55 61.9 °F /  16.6 °C 55.6 °F /  13.1 °C 30.1in /  1018.3hPa WNW 0.9mph /  1.4km/h 2mph /  3.2km/h 80% 0in /  0.0mm 0 W/m2
02:00 61.7 °F /  16.5 °C 55.4 °F /  13 °C 30.1in /  1018.3hPa WSW 0.9mph /  1.4km/h 2mph /  3.2km/h 80% 0in /  0.0mm 0 W/m2
02:05 61.5 °F /  16.4 °C 55.6 °F /  13.1 °C 30.1in /  1018.3hPa ENE 2mph /  3.2km/h 3mph /  4.8km/h 81% 0in /  0.0mm 0 W/m2
02:10 61.3 °F /  16.3 °C 55 °F /  12.8 °C 30.1in /  1018.3hPa Calm   2mph /  3.2km/h 80% 0in /  0.0mm 0 W/m2
02:15 61.3 °F /  16.3 °C 55 °F /  12.8 °C 30.1in /  1018.3hPa WSW 0.9mph /  1.4km/h 1mph /  1.6km/h 80% 0in /  0.0mm 0 W/m2
02:20 61.5 °F /  16.4 °C 55.2 °F /  12.9 °C 30.1in /  1018.3hPa Calm   2mph /  3.2km/h 80% 0in /  0.0mm 0 W/m2
02:25 61.3 °F /  16.3 °C 55.4 °F /  13 °C 30.1in /  1018.3hPa WNW 0.9mph /  1.4km/h 2mph /  3.2km/h 81% 0in /  0.0mm 0 W/m2
Juneau County Weather
Compliments of Weather Underground - 2 mb